sensor_id;sensor_type;location;lat;lon;timestamp;temperature;humidity
4530;DHT22;2277;51.626;7.516;2023-04-19T00:01:22;13.40;99.90
4530;DHT22;2277;51.626;7.516;2023-04-19T00:03:48;13.40;99.90
4530;DHT22;2277;51.626;7.516;2023-04-19T00:06:14;13.40;99.90
4530;DHT22;2277;51.626;7.516;2023-04-19T00:08:40;13.40;99.90
4530;DHT22;2277;51.626;7.516;2023-04-19T00:11:07;13.50;99.90
4530;DHT22;2277;51.626;7.516;2023-04-19T00:13:33;13.50;99.90
4530;DHT22;2277;51.626;7.516;2023-04-19T00:15:59;13.40;99.90
4530;DHT22;2277;51.626;7.516;2023-04-19T00:18:25;13.40;99.90
4530;DHT22;2277;51.626;7.516;2023-04-19T00:20:51;13.40;99.90
4530;DHT22;2277;51.626;7.516;2023-04-19T00:23:16;13.50;99.90
4530;DHT22;2277;51.626;7.516;2023-04-19T00:25:42;13.50;99.90
4530;DHT22;2277;51.626;7.516;2023-04-19T00:28:07;13.50;99.90
4530;DHT22;2277;51.626;7.516;2023-04-19T00:30:33;13.50;99.90
4530;DHT22;2277;51.626;7.516;2023-04-19T00:32:59;13.50;99.90
4530;DHT22;2277;51.626;7.516;2023-04-19T00:35:24;13.50;99.90
4530;DHT22;2277;51.626;7.516;2023-04-19T00:37:50;13.50;99.90
4530;DHT22;2277;51.626;7.516;2023-04-19T00:40:16;13.50;99.90
4530;DHT22;2277;51.626;7.516;2023-04-19T00:42:41;13.40;99.90
4530;DHT22;2277;51.626;7.516;2023-04-19T00:45:07;13.40;99.90
4530;DHT22;2277;51.626;7.516;2023-04-19T00:47:34;13.40;99.90
4530;DHT22;2277;51.626;7.516;2023-04-19T00:50:02;13.40;99.90
4530;DHT22;2277;51.626;7.516;2023-04-19T00:52:28;13.40;99.90
4530;DHT22;2277;51.626;7.516;2023-04-19T00:54:54;13.40;99.90
4530;DHT22;2277;51.626;7.516;2023-04-19T00:57:21;13.40;99.90
4530;DHT22;2277;51.626;7.516;2023-04-19T00:59:48;13.40;99.90
4530;DHT22;2277;51.626;7.516;2023-04-19T01:02:13;13.40;99.90
4530;DHT22;2277;51.626;7.516;2023-04-19T01:04:39;13.40;99.90
4530;DHT22;2277;51.626;7.516;2023-04-19T01:07:04;13.40;99.90
4530;DHT22;2277;51.626;7.516;2023-04-19T01:09:31;13.40;99.90
4530;DHT22;2277;51.626;7.516;2023-04-19T01:11:56;13.40;99.90
4530;DHT22;2277;51.626;7.516;2023-04-19T01:14:23;13.40;99.90
4530;DHT22;2277;51.626;7.516;2023-04-19T01:16:48;13.40;99.90
4530;DHT22;2277;51.626;7.516;2023-04-19T01:19:15;13.40;99.90
4530;DHT22;2277;51.626;7.516;2023-04-19T01:21:41;13.40;99.90
4530;DHT22;2277;51.626;7.516;2023-04-19T01:24:08;13.40;99.90
4530;DHT22;2277;51.626;7.516;2023-04-19T01:26:34;13.30;99.90
4530;DHT22;2277;51.626;7.516;2023-04-19T01:28:59;13.20;99.90
4530;DHT22;2277;51.626;7.516;2023-04-19T01:31:25;13.20;99.90
4530;DHT22;2277;51.626;7.516;2023-04-19T01:33:51;13.20;99.90
4530;DHT22;2277;51.626;7.516;2023-04-19T01:36:16;13.20;99.90
4530;DHT22;2277;51.626;7.516;2023-04-19T01:38:42;13.20;99.90
4530;DHT22;2277;51.626;7.516;2023-04-19T01:41:08;13.20;99.90
4530;DHT22;2277;51.626;7.516;2023-04-19T01:43:33;13.10;99.90
4530;DHT22;2277;51.626;7.516;2023-04-19T01:46:00;13.00;99.90
4530;DHT22;2277;51.626;7.516;2023-04-19T01:48:26;13.10;99.90
4530;DHT22;2277;51.626;7.516;2023-04-19T01:50:51;13.00;99.90
4530;DHT22;2277;51.626;7.516;2023-04-19T01:53:17;13.20;99.90
4530;DHT22;2277;51.626;7.516;2023-04-19T01:55:43;13.10;99.90
4530;DHT22;2277;51.626;7.516;2023-04-19T01:58:08;13.20;99.90
4530;DHT22;2277;51.626;7.516;2023-04-19T02:00:34;13.20;99.90
4530;DHT22;2277;51.626;7.516;2023-04-19T02:03:00;13.20;99.90
4530;DHT22;2277;51.626;7.516;2023-04-19T02:05:25;13.20;99.90
4530;DHT22;2277;51.626;7.516;2023-04-19T02:07:51;13.10;99.90
4530;DHT22;2277;51.626;7.516;2023-04-19T02:10:17;13.10;99.90
4530;DHT22;2277;51.626;7.516;2023-04-19T02:12:42;13.10;99.90
4530;DHT22;2277;51.626;7.516;2023-04-19T02:15:08;13.10;99.90
4530;DHT22;2277;51.626;7.516;2023-04-19T02:17:34;13.10;99.90
4530;DHT22;2277;51.626;7.516;2023-04-19T02:20:00;13.00;99.90
4530;DHT22;2277;51.626;7.516;2023-04-19T02:22:26;13.00;99.90
4530;DHT22;2277;51.626;7.516;2023-04-19T02:24:52;13.00;99.90
4530;DHT22;2277;51.626;7.516;2023-04-19T02:27:18;13.00;99.90
4530;DHT22;2277;51.626;7.516;2023-04-19T02:29:43;13.00;99.90
4530;DHT22;2277;51.626;7.516;2023-04-19T02:32:11;12.90;99.90
4530;DHT22;2277;51.626;7.516;2023-04-19T02:34:37;12.90;99.90
4530;DHT22;2277;51.626;7.516;2023-04-19T02:37:02;12.90;99.90
4530;DHT22;2277;51.626;7.516;2023-04-19T02:39:28;12.80;99.90
4530;DHT22;2277;51.626;7.516;2023-04-19T02:41:54;12.80;99.90
4530;DHT22;2277;51.626;7.516;2023-04-19T02:44:20;12.80;99.90
4530;DHT22;2277;51.626;7.516;2023-04-19T02:46:52;12.80;99.90
4530;DHT22;2277;51.626;7.516;2023-04-19T02:49:19;12.70;99.90
4530;DHT22;2277;51.626;7.516;2023-04-19T02:51:45;12.70;99.90
4530;DHT22;2277;51.626;7.516;2023-04-19T02:54:11;12.80;99.90
4530;DHT22;2277;51.626;7.516;2023-04-19T02:56:37;12.80;99.90
4530;DHT22;2277;51.626;7.516;2023-04-19T02:59:03;12.70;99.90
4530;DHT22;2277;51.626;7.516;2023-04-19T03:01:29;12.60;99.90
4530;DHT22;2277;51.626;7.516;2023-04-19T03:03:55;12.70;99.90
4530;DHT22;2277;51.626;7.516;2023-04-19T03:06:20;12.70;99.90
4530;DHT22;2277;51.626;7.516;2023-04-19T03:08:46;12.70;99.90
4530;DHT22;2277;51.626;7.516;2023-04-19T03:11:14;12.60;99.90
4530;DHT22;2277;51.626;7.516;2023-04-19T03:13:40;12.60;99.90
4530;DHT22;2277;51.626;7.516;2023-04-19T03:16:06;12.40;99.90
4530;DHT22;2277;51.626;7.516;2023-04-19T03:18:32;12.30;99.90
4530;DHT22;2277;51.626;7.516;2023-04-19T03:20:57;12.30;99.90
4530;DHT22;2277;51.626;7.516;2023-04-19T03:23:24;12.30;99.90
4530;DHT22;2277;51.626;7.516;2023-04-19T03:25:50;12.40;99.90
4530;DHT22;2277;51.626;7.516;2023-04-19T03:28:15;12.40;99.90
4530;DHT22;2277;51.626;7.516;2023-04-19T03:30:41;12.30;99.90
4530;DHT22;2277;51.626;7.516;2023-04-19T03:33:06;12.20;99.90
4530;DHT22;2277;51.626;7.516;2023-04-19T03:35:32;12.10;99.90
4530;DHT22;2277;51.626;7.516;2023-04-19T03:37:58;12.20;99.90
4530;DHT22;2277;51.626;7.516;2023-04-19T03:40:23;12.20;99.90
4530;DHT22;2277;51.626;7.516;2023-04-19T03:42:49;12.10;99.90
4530;DHT22;2277;51.626;7.516;2023-04-19T03:45:14;12.10;99.90
4530;DHT22;2277;51.626;7.516;2023-04-19T03:47:40;12.10;99.90
4530;DHT22;2277;51.626;7.516;2023-04-19T03:50:06;12.10;99.90
4530;DHT22;2277;51.626;7.516;2023-04-19T03:52:32;12.10;99.90
4530;DHT22;2277;51.626;7.516;2023-04-19T03:54:58;12.10;99.90
4530;DHT22;2277;51.626;7.516;2023-04-19T03:57:23;12.10;99.90
4530;DHT22;2277;51.626;7.516;2023-04-19T03:59:49;12.00;99.90
4530;DHT22;2277;51.626;7.516;2023-04-19T04:02:15;12.00;99.90
4530;DHT22;2277;51.626;7.516;2023-04-19T04:04:40;12.00;99.90
4530;DHT22;2277;51.626;7.516;2023-04-19T04:07:06;12.00;99.90
4530;DHT22;2277;51.626;7.516;2023-04-19T04:09:31;12.00;99.90
4530;DHT22;2277;51.626;7.516;2023-04-19T04:11:57;11.90;99.90
4530;DHT22;2277;51.626;7.516;2023-04-19T04:14:23;11.90;99.90
4530;DHT22;2277;51.626;7.516;2023-04-19T04:16:48;11.80;99.90
4530;DHT22;2277;51.626;7.516;2023-04-19T04:19:14;11.80;99.90
4530;DHT22;2277;51.626;7.516;2023-04-19T04:21:40;11.80;99.90
4530;DHT22;2277;51.626;7.516;2023-04-19T04:24:05;11.80;99.90
4530;DHT22;2277;51.626;7.516;2023-04-19T04:26:32;11.70;99.90
4530;DHT22;2277;51.626;7.516;2023-04-19T04:28:59;11.70;99.90
4530;DHT22;2277;51.626;7.516;2023-04-19T04:31:26;11.70;99.90
4530;DHT22;2277;51.626;7.516;2023-04-19T04:33:52;11.70;99.90
4530;DHT22;2277;51.626;7.516;2023-04-19T04:36:20;11.60;99.90
4530;DHT22;2277;51.626;7.516;2023-04-19T04:38:46;11.60;99.90
4530;DHT22;2277;51.626;7.516;2023-04-19T04:41:12;11.60;99.90
4530;DHT22;2277;51.626;7.516;2023-04-19T04:43:37;11.60;99.90
4530;DHT22;2277;51.626;7.516;2023-04-19T04:46:04;11.50;99.90
4530;DHT22;2277;51.626;7.516;2023-04-19T04:48:30;11.50;99.90
4530;DHT22;2277;51.626;7.516;2023-04-19T04:50:56;11.50;99.90
4530;DHT22;2277;51.626;7.516;2023-04-19T04:53:24;11.50;99.90
4530;DHT22;2277;51.626;7.516;2023-04-19T04:55:51;11.50;99.90
4530;DHT22;2277;51.626;7.516;2023-04-19T04:58:16;11.50;99.90
4530;DHT22;2277;51.626;7.516;2023-04-19T05:00:42;11.40;99.90
4530;DHT22;2277;51.626;7.516;2023-04-19T05:03:08;11.40;99.90
4530;DHT22;2277;51.626;7.516;2023-04-19T05:05:33;11.30;99.90
4530;DHT22;2277;51.626;7.516;2023-04-19T05:07:59;11.30;99.90
4530;DHT22;2277;51.626;7.516;2023-04-19T05:10:25;11.20;99.90
4530;DHT22;2277;51.626;7.516;2023-04-19T05:12:51;11.20;99.90
4530;DHT22;2277;51.626;7.516;2023-04-19T05:15:16;11.10;99.90
4530;DHT22;2277;51.626;7.516;2023-04-19T05:17:42;11.10;99.90
4530;DHT22;2277;51.626;7.516;2023-04-19T05:20:08;11.10;99.90
4530;DHT22;2277;51.626;7.516;2023-04-19T05:22:34;11.10;99.90
4530;DHT22;2277;51.626;7.516;2023-04-19T05:24:59;11.10;99.90
4530;DHT22;2277;51.626;7.516;2023-04-19T05:27:26;11.00;99.90
4530;DHT22;2277;51.626;7.516;2023-04-19T05:29:52;11.00;99.90
4530;DHT22;2277;51.626;7.516;2023-04-19T05:32:18;11.00;99.90
4530;DHT22;2277;51.626;7.516;2023-04-19T05:34:43;11.10;99.90
4530;DHT22;2277;51.626;7.516;2023-04-19T05:37:09;10.90;99.90
4530;DHT22;2277;51.626;7.516;2023-04-19T05:39:34;10.90;99.90
4530;DHT22;2277;51.626;7.516;2023-04-19T05:42:00;11.00;99.90
4530;DHT22;2277;51.626;7.516;2023-04-19T05:44:26;11.00;99.90
4530;DHT22;2277;51.626;7.516;2023-04-19T05:46:51;11.10;99.90
4530;DHT22;2277;51.626;7.516;2023-04-19T05:49:17;11.10;99.90
4530;DHT22;2277;51.626;7.516;2023-04-19T05:51:43;11.00;99.90
4530;DHT22;2277;51.626;7.516;2023-04-19T05:54:08;11.00;99.90
4530;DHT22;2277;51.626;7.516;2023-04-19T05:56:37;11.00;99.90
4530;DHT22;2277;51.626;7.516;2023-04-19T05:59:03;11.00;99.90
4530;DHT22;2277;51.626;7.516;2023-04-19T06:01:29;10.90;99.90
4530;DHT22;2277;51.626;7.516;2023-04-19T06:03:54;10.90;99.90
4530;DHT22;2277;51.626;7.516;2023-04-19T06:06:23;10.80;99.90
4530;DHT22;2277;51.626;7.516;2023-04-19T06:08:49;10.80;99.90
4530;DHT22;2277;51.626;7.516;2023-04-19T06:11:15;10.80;99.90
4530;DHT22;2277;51.626;7.516;2023-04-19T06:13:41;10.90;99.90
4530;DHT22;2277;51.626;7.516;2023-04-19T06:16:07;10.80;99.90
4530;DHT22;2277;51.626;7.516;2023-04-19T06:18:33;10.80;99.90
4530;DHT22;2277;51.626;7.516;2023-04-19T06:20:59;10.80;99.90
4530;DHT22;2277;51.626;7.516;2023-04-19T06:23:24;10.80;99.90
4530;DHT22;2277;51.626;7.516;2023-04-19T06:25:51;10.80;99.90
4530;DHT22;2277;51.626;7.516;2023-04-19T06:28:17;10.80;99.90
4530;DHT22;2277;51.626;7.516;2023-04-19T06:30:43;10.80;99.90
4530;DHT22;2277;51.626;7.516;2023-04-19T06:33:08;10.90;99.90
4530;DHT22;2277;51.626;7.516;2023-04-19T06:35:34;11.00;99.90
4530;DHT22;2277;51.626;7.516;2023-04-19T06:37:59;11.10;99.90
4530;DHT22;2277;51.626;7.516;2023-04-19T06:40:26;11.20;99.90
4530;DHT22;2277;51.626;7.516;2023-04-19T06:42:53;11.30;99.90
4530;DHT22;2277;51.626;7.516;2023-04-19T06:45:18;11.40;99.90
4530;DHT22;2277;51.626;7.516;2023-04-19T06:47:44;11.50;99.90
4530;DHT22;2277;51.626;7.516;2023-04-19T06:50:10;11.50;99.90
4530;DHT22;2277;51.626;7.516;2023-04-19T06:52:36;11.60;99.90
4530;DHT22;2277;51.626;7.516;2023-04-19T06:55:01;11.60;99.90
4530;DHT22;2277;51.626;7.516;2023-04-19T06:57:27;11.70;99.90
4530;DHT22;2277;51.626;7.516;2023-04-19T06:59:56;11.80;99.90
4530;DHT22;2277;51.626;7.516;2023-04-19T07:02:23;11.90;99.90
4530;DHT22;2277;51.626;7.516;2023-04-19T07:04:48;11.90;99.90
4530;DHT22;2277;51.626;7.516;2023-04-19T07:07:14;12.00;99.90
4530;DHT22;2277;51.626;7.516;2023-04-19T07:09:40;12.10;99.90
4530;DHT22;2277;51.626;7.516;2023-04-19T07:12:06;12.10;99.90
4530;DHT22;2277;51.626;7.516;2023-04-19T07:14:31;12.30;99.90
4530;DHT22;2277;51.626;7.516;2023-04-19T07:16:57;12.30;99.90
4530;DHT22;2277;51.626;7.516;2023-04-19T07:19:23;12.20;99.90
4530;DHT22;2277;51.626;7.516;2023-04-19T07:21:49;12.10;99.90
4530;DHT22;2277;51.626;7.516;2023-04-19T07:24:14;12.20;99.90
4530;DHT22;2277;51.626;7.516;2023-04-19T07:26:40;12.40;99.90
4530;DHT22;2277;51.626;7.516;2023-04-19T07:29:06;12.50;99.90
4530;DHT22;2277;51.626;7.516;2023-04-19T07:31:32;12.60;99.90
4530;DHT22;2277;51.626;7.516;2023-04-19T07:33:57;12.70;99.90
4530;DHT22;2277;51.626;7.516;2023-04-19T07:36:23;12.80;99.90
4530;DHT22;2277;51.626;7.516;2023-04-19T07:38:49;12.80;99.90
4530;DHT22;2277;51.626;7.516;2023-04-19T07:41:14;12.90;99.90
4530;DHT22;2277;51.626;7.516;2023-04-19T07:43:40;12.90;99.90
4530;DHT22;2277;51.626;7.516;2023-04-19T07:46:13;13.00;99.90
4530;DHT22;2277;51.626;7.516;2023-04-19T07:48:40;13.20;99.90
4530;DHT22;2277;51.626;7.516;2023-04-19T07:51:13;13.40;99.80
4530;DHT22;2277;51.626;7.516;2023-04-19T07:53:41;13.50;99.60
4530;DHT22;2277;51.626;7.516;2023-04-19T07:56:08;13.60;98.60
4530;DHT22;2277;51.626;7.516;2023-04-19T07:58:35;13.60;98.80
4530;DHT22;2277;51.626;7.516;2023-04-19T08:01:00;13.80;94.90
4530;DHT22;2277;51.626;7.516;2023-04-19T08:03:26;13.60;92.60
4530;DHT22;2277;51.626;7.516;2023-04-19T08:05:52;13.60;94.80
4530;DHT22;2277;51.626;7.516;2023-04-19T08:08:18;13.70;92.50
4530;DHT22;2277;51.626;7.516;2023-04-19T08:10:43;13.60;93.60
4530;DHT22;2277;51.626;7.516;2023-04-19T08:13:10;13.50;92.10
4530;DHT22;2277;51.626;7.516;2023-04-19T08:15:36;13.50;87.00
4530;DHT22;2277;51.626;7.516;2023-04-19T08:18:02;13.50;91.60
4530;DHT22;2277;51.626;7.516;2023-04-19T08:20:29;13.80;88.00
4530;DHT22;2277;51.626;7.516;2023-04-19T08:22:56;13.80;84.20
4530;DHT22;2277;51.626;7.516;2023-04-19T08:25:22;13.80;80.80
4530;DHT22;2277;51.626;7.516;2023-04-19T08:27:51;13.80;83.10
4530;DHT22;2277;51.626;7.516;2023-04-19T08:30:16;14.10;79.60
4530;DHT22;2277;51.626;7.516;2023-04-19T08:32:42;14.10;79.40
4530;DHT22;2277;51.626;7.516;2023-04-19T08:35:08;14.10;79.60
4530;DHT22;2277;51.626;7.516;2023-04-19T08:37:34;14.20;81.00
4530;DHT22;2277;51.626;7.516;2023-04-19T08:39:59;14.40;82.60
4530;DHT22;2277;51.626;7.516;2023-04-19T08:42:25;14.30;75.60
4530;DHT22;2277;51.626;7.516;2023-04-19T08:44:51;13.90;73.40
4530;DHT22;2277;51.626;7.516;2023-04-19T08:47:19;13.90;72.80
4530;DHT22;2277;51.626;7.516;2023-04-19T08:49:46;14.10;75.70
4530;DHT22;2277;51.626;7.516;2023-04-19T08:52:13;14.00;72.10
4530;DHT22;2277;51.626;7.516;2023-04-19T08:54:40;14.10;74.60
4530;DHT22;2277;51.626;7.516;2023-04-19T08:57:05;14.30;78.70
4530;DHT22;2277;51.626;7.516;2023-04-19T08:59:34;14.50;78.00
4530;DHT22;2277;51.626;7.516;2023-04-19T09:02:00;14.50;77.70
4530;DHT22;2277;51.626;7.516;2023-04-19T09:04:26;14.50;77.60
4530;DHT22;2277;51.626;7.516;2023-04-19T09:06:53;14.70;84.30
4530;DHT22;2277;51.626;7.516;2023-04-19T09:09:22;15.00;87.70
4530;DHT22;2277;51.626;7.516;2023-04-19T09:11:48;15.20;87.20
4530;DHT22;2277;51.626;7.516;2023-04-19T09:14:16;15.30;84.60
4530;DHT22;2277;51.626;7.516;2023-04-19T09:16:42;15.50;87.40
4530;DHT22;2277;51.626;7.516;2023-04-19T09:19:08;15.80;86.90
4530;DHT22;2277;51.626;7.516;2023-04-19T09:21:34;15.90;86.30
4530;DHT22;2277;51.626;7.516;2023-04-19T09:24:01;16.00;80.70
4530;DHT22;2277;51.626;7.516;2023-04-19T09:26:27;16.10;81.10
4530;DHT22;2277;51.626;7.516;2023-04-19T09:28:57;16.40;80.70
4530;DHT22;2277;51.626;7.516;2023-04-19T09:31:24;16.50;80.90
4530;DHT22;2277;51.626;7.516;2023-04-19T09:33:53;16.50;76.60
4530;DHT22;2277;51.626;7.516;2023-04-19T09:36:32;16.60;74.70
4530;DHT22;2277;51.626;7.516;2023-04-19T09:38:58;16.80;74.70
4530;DHT22;2277;51.626;7.516;2023-04-19T09:41:24;16.90;72.20
4530;DHT22;2277;51.626;7.516;2023-04-19T09:43:51;16.60;61.60
4530;DHT22;2277;51.626;7.516;2023-04-19T09:46:34;15.70;57.10
4530;DHT22;2277;51.626;7.516;2023-04-19T09:51:45;15.60;61.30
4530;DHT22;2277;51.626;7.516;2023-04-19T09:54:12;15.80;59.00
4530;DHT22;2277;51.626;7.516;2023-04-19T09:56:38;15.90;58.30
4530;DHT22;2277;51.626;7.516;2023-04-19T09:59:05;15.80;58.60
4530;DHT22;2277;51.626;7.516;2023-04-19T10:01:52;16.10;58.10
4530;DHT22;2277;51.626;7.516;2023-04-19T10:04:19;15.80;55.80
4530;DHT22;2277;51.626;7.516;2023-04-19T10:06:52;15.80;56.90
4530;DHT22;2277;51.626;7.516;2023-04-19T10:09:21;16.20;59.90
4530;DHT22;2277;51.626;7.516;2023-04-19T10:11:48;16.60;64.80
4530;DHT22;2277;51.626;7.516;2023-04-19T10:14:15;16.90;67.60
4530;DHT22;2277;51.626;7.516;2023-04-19T10:16:41;17.20;66.80
4530;DHT22;2277;51.626;7.516;2023-04-19T10:19:12;17.50;70.60
4530;DHT22;2277;51.626;7.516;2023-04-19T10:21:38;17.70;68.00
4530;DHT22;2277;51.626;7.516;2023-04-19T10:24:06;17.90;64.50
4530;DHT22;2277;51.626;7.516;2023-04-19T10:29:55;18.30;69.00
4530;DHT22;2277;51.626;7.516;2023-04-19T10:32:22;18.70;66.50
4530;DHT22;2277;51.626;7.516;2023-04-19T10:34:51;18.90;61.00
4530;DHT22;2277;51.626;7.516;2023-04-19T10:37:26;19.00;63.60
4530;DHT22;2277;51.626;7.516;2023-04-19T10:39:52;19.30;58.40
4530;DHT22;2277;51.626;7.516;2023-04-19T10:42:17;19.40;58.00
4530;DHT22;2277;51.626;7.516;2023-04-19T10:47:53;19.80;58.20
4530;DHT22;2277;51.626;7.516;2023-04-19T10:50:22;19.80;56.60
4530;DHT22;2277;51.626;7.516;2023-04-19T10:52:48;19.90;54.60
4530;DHT22;2277;51.626;7.516;2023-04-19T10:55:14;20.00;52.60
4530;DHT22;2277;51.626;7.516;2023-04-19T10:58:04;20.10;51.80
4530;DHT22;2277;51.626;7.516;2023-04-19T11:00:31;20.10;52.90
4530;DHT22;2277;51.626;7.516;2023-04-19T11:06:16;20.00;49.20
4530;DHT22;2277;51.626;7.516;2023-04-19T11:08:44;19.70;50.10
4530;DHT22;2277;51.626;7.516;2023-04-19T11:11:09;20.00;52.10
4530;DHT22;2277;51.626;7.516;2023-04-19T11:13:36;20.20;51.90
4530;DHT22;2277;51.626;7.516;2023-04-19T11:16:07;20.30;53.80
4530;DHT22;2277;51.626;7.516;2023-04-19T11:18:33;20.20;49.50
4530;DHT22;2277;51.626;7.516;2023-04-19T11:20:58;20.20;50.00
4530;DHT22;2277;51.626;7.516;2023-04-19T11:23:26;20.50;52.80
4530;DHT22;2277;51.626;7.516;2023-04-19T11:25:52;20.60;51.00
4530;DHT22;2277;51.626;7.516;2023-04-19T11:28:18;20.70;50.30
4530;DHT22;2277;51.626;7.516;2023-04-19T11:30:46;20.70;49.80
4530;DHT22;2277;51.626;7.516;2023-04-19T11:33:12;21.00;52.00
4530;DHT22;2277;51.626;7.516;2023-04-19T11:35:38;21.20;51.20
4530;DHT22;2277;51.626;7.516;2023-04-19T11:38:04;21.30;50.70
4530;DHT22;2277;51.626;7.516;2023-04-19T11:40:30;21.20;48.80
4530;DHT22;2277;51.626;7.516;2023-04-19T11:43:01;21.30;48.20
4530;DHT22;2277;51.626;7.516;2023-04-19T11:45:28;21.30;48.40
4530;DHT22;2277;51.626;7.516;2023-04-19T11:47:55;21.40;49.10
4530;DHT22;2277;51.626;7.516;2023-04-19T11:50:43;21.40;46.90
4530;DHT22;2277;51.626;7.516;2023-04-19T11:55:35;21.40;51.70
4530;DHT22;2277;51.626;7.516;2023-04-19T11:58:01;21.50;51.40
4530;DHT22;2277;51.626;7.516;2023-04-19T12:00:27;21.50;51.10
4530;DHT22;2277;51.626;7.516;2023-04-19T12:02:53;21.40;48.50
4530;DHT22;2277;51.626;7.516;2023-04-19T12:05:19;21.60;48.90
4530;DHT22;2277;51.626;7.516;2023-04-19T12:08:28;21.70;48.70
4530;DHT22;2277;51.626;7.516;2023-04-19T12:10:58;21.30;45.60
4530;DHT22;2277;51.626;7.516;2023-04-19T12:13:26;20.60;43.80
4530;DHT22;2277;51.626;7.516;2023-04-19T12:15:52;20.70;45.90
4530;DHT22;2277;51.626;7.516;2023-04-19T12:18:18;20.80;46.90
4530;DHT22;2277;51.626;7.516;2023-04-19T12:20:48;20.80;47.10
4530;DHT22;2277;51.626;7.516;2023-04-19T12:23:15;21.20;46.70
4530;DHT22;2277;51.626;7.516;2023-04-19T12:25:43;21.40;48.10
4530;DHT22;2277;51.626;7.516;2023-04-19T12:28:09;21.30;44.20
4530;DHT22;2277;51.626;7.516;2023-04-19T12:30:35;21.50;46.40
4530;DHT22;2277;51.626;7.516;2023-04-19T12:33:01;21.60;47.20
4530;DHT22;2277;51.626;7.516;2023-04-19T12:35:27;21.70;46.80
4530;DHT22;2277;51.626;7.516;2023-04-19T12:37:54;21.70;46.30
4530;DHT22;2277;51.626;7.516;2023-04-19T12:40:20;21.80;46.60
4530;DHT22;2277;51.626;7.516;2023-04-19T12:42:46;22.10;44.20
4530;DHT22;2277;51.626;7.516;2023-04-19T12:45:12;22.20;44.30
4530;DHT22;2277;51.626;7.516;2023-04-19T12:47:39;21.40;41.50
4530;DHT22;2277;51.626;7.516;2023-04-19T12:50:06;21.50;45.70
4530;DHT22;2277;51.626;7.516;2023-04-19T12:52:32;21.90;44.70
4530;DHT22;2277;51.626;7.516;2023-04-19T12:54:57;21.90;43.80
4530;DHT22;2277;51.626;7.516;2023-04-19T12:57:23;22.00;45.40
4530;DHT22;2277;51.626;7.516;2023-04-19T12:59:49;22.20;46.20
4530;DHT22;2277;51.626;7.516;2023-04-19T13:02:14;22.30;44.20
4530;DHT22;2277;51.626;7.516;2023-04-19T13:04:40;22.20;42.60
4530;DHT22;2277;51.626;7.516;2023-04-19T13:07:05;22.40;44.70
4530;DHT22;2277;51.626;7.516;2023-04-19T13:09:31;22.40;42.30
4530;DHT22;2277;51.626;7.516;2023-04-19T13:11:57;22.50;41.20
4530;DHT22;2277;51.626;7.516;2023-04-19T13:14:24;22.60;42.70
4530;DHT22;2277;51.626;7.516;2023-04-19T13:16:50;22.10;42.70
4530;DHT22;2277;51.626;7.516;2023-04-19T13:19:16;22.40;44.10
4530;DHT22;2277;51.626;7.516;2023-04-19T13:21:41;22.30;42.60
4530;DHT22;2277;51.626;7.516;2023-04-19T13:24:08;22.50;43.10
4530;DHT22;2277;51.626;7.516;2023-04-19T13:26:33;22.30;40.30
4530;DHT22;2277;51.626;7.516;2023-04-19T13:28:59;22.40;45.10
4530;DHT22;2277;51.626;7.516;2023-04-19T13:31:25;22.70;42.10
4530;DHT22;2277;51.626;7.516;2023-04-19T13:33:51;22.90;43.50
4530;DHT22;2277;51.626;7.516;2023-04-19T13:36:17;22.60;39.10
4530;DHT22;2277;51.626;7.516;2023-04-19T13:38:43;22.50;39.60
4530;DHT22;2277;51.626;7.516;2023-04-19T13:41:09;22.60;41.70
4530;DHT22;2277;51.626;7.516;2023-04-19T13:43:35;22.60;40.60
4530;DHT22;2277;51.626;7.516;2023-04-19T13:46:00;22.60;41.50
4530;DHT22;2277;51.626;7.516;2023-04-19T13:48:26;22.80;41.40
4530;DHT22;2277;51.626;7.516;2023-04-19T13:50:54;22.60;40.30
4530;DHT22;2277;51.626;7.516;2023-04-19T13:53:20;22.10;39.10
4530;DHT22;2277;51.626;7.516;2023-04-19T13:55:45;22.20;41.20
4530;DHT22;2277;51.626;7.516;2023-04-19T13:58:11;22.20;39.90
4530;DHT22;2277;51.626;7.516;2023-04-19T14:00:37;22.20;41.60
4530;DHT22;2277;51.626;7.516;2023-04-19T14:03:02;22.30;41.10
4530;DHT22;2277;51.626;7.516;2023-04-19T14:05:28;22.20;40.70
4530;DHT22;2277;51.626;7.516;2023-04-19T14:07:54;22.00;40.30
4530;DHT22;2277;51.626;7.516;2023-04-19T14:10:20;22.10;39.90
4530;DHT22;2277;51.626;7.516;2023-04-19T14:12:46;22.30;42.30
4530;DHT22;2277;51.626;7.516;2023-04-19T14:15:12;22.50;42.80
4530;DHT22;2277;51.626;7.516;2023-04-19T14:17:38;22.70;41.90
4530;DHT22;2277;51.626;7.516;2023-04-19T14:20:04;22.80;40.80
4530;DHT22;2277;51.626;7.516;2023-04-19T14:22:31;22.80;40.20
4530;DHT22;2277;51.626;7.516;2023-04-19T14:24:56;22.60;41.30
4530;DHT22;2277;51.626;7.516;2023-04-19T14:27:23;22.50;40.60
4530;DHT22;2277;51.626;7.516;2023-04-19T14:29:48;22.50;41.10
4530;DHT22;2277;51.626;7.516;2023-04-19T14:32:14;22.50;39.50
4530;DHT22;2277;51.626;7.516;2023-04-19T14:34:40;22.50;40.20
4530;DHT22;2277;51.626;7.516;2023-04-19T14:37:05;22.40;39.50
4530;DHT22;2277;51.626;7.516;2023-04-19T14:39:31;22.30;39.40
4530;DHT22;2277;51.626;7.516;2023-04-19T14:41:57;22.20;38.50
4530;DHT22;2277;51.626;7.516;2023-04-19T14:44:22;22.10;38.90
4530;DHT22;2277;51.626;7.516;2023-04-19T14:46:48;22.00;38.50
4530;DHT22;2277;51.626;7.516;2023-04-19T14:49:14;22.10;39.20
4530;DHT22;2277;51.626;7.516;2023-04-19T14:51:39;21.90;38.70
4530;DHT22;2277;51.626;7.516;2023-04-19T14:54:05;21.80;40.30
4530;DHT22;2277;51.626;7.516;2023-04-19T14:56:30;22.10;40.60
4530;DHT22;2277;51.626;7.516;2023-04-19T14:58:56;22.20;42.00
4530;DHT22;2277;51.626;7.516;2023-04-19T15:01:22;22.20;41.10
4530;DHT22;2277;51.626;7.516;2023-04-19T15:03:50;22.10;39.80
4530;DHT22;2277;51.626;7.516;2023-04-19T15:06:16;22.00;39.70
4530;DHT22;2277;51.626;7.516;2023-04-19T15:08:41;21.70;38.30
4530;DHT22;2277;51.626;7.516;2023-04-19T15:11:08;21.70;39.40
4530;DHT22;2277;51.626;7.516;2023-04-19T15:13:33;21.60;39.20
4530;DHT22;2277;51.626;7.516;2023-04-19T15:16:00;21.60;39.40
4530;DHT22;2277;51.626;7.516;2023-04-19T15:18:26;21.40;38.60
4530;DHT22;2277;51.626;7.516;2023-04-19T15:20:52;21.20;38.80
4530;DHT22;2277;51.626;7.516;2023-04-19T15:23:21;21.10;39.00
4530;DHT22;2277;51.626;7.516;2023-04-19T15:25:47;21.00;38.80
4530;DHT22;2277;51.626;7.516;2023-04-19T15:28:14;20.90;38.60
4530;DHT22;2277;51.626;7.516;2023-04-19T15:30:39;20.80;38.90
4530;DHT22;2277;51.626;7.516;2023-04-19T15:33:05;20.70;38.60
4530;DHT22;2277;51.626;7.516;2023-04-19T15:35:31;20.60;38.10
4530;DHT22;2277;51.626;7.516;2023-04-19T15:37:57;20.60;40.50
4530;DHT22;2277;51.626;7.516;2023-04-19T15:40:22;20.80;39.00
4530;DHT22;2277;51.626;7.516;2023-04-19T15:42:49;20.60;37.70
4530;DHT22;2277;51.626;7.516;2023-04-19T15:45:15;20.40;37.70
4530;DHT22;2277;51.626;7.516;2023-04-19T15:47:40;20.20;38.00
4530;DHT22;2277;51.626;7.516;2023-04-19T15:50:06;20.10;37.80
4530;DHT22;2277;51.626;7.516;2023-04-19T15:52:32;19.90;39.50
4530;DHT22;2277;51.626;7.516;2023-04-19T15:54:57;19.90;39.40
4530;DHT22;2277;51.626;7.516;2023-04-19T15:57:23;19.80;38.40
4530;DHT22;2277;51.626;7.516;2023-04-19T15:59:49;19.90;38.40
4530;DHT22;2277;51.626;7.516;2023-04-19T16:02:14;19.90;38.20
4530;DHT22;2277;51.626;7.516;2023-04-19T16:04:40;19.90;39.90
4530;DHT22;2277;51.626;7.516;2023-04-19T16:07:06;19.90;39.00
4530;DHT22;2277;51.626;7.516;2023-04-19T16:09:31;19.80;38.60
4530;DHT22;2277;51.626;7.516;2023-04-19T16:11:57;19.90;38.00